createdAt,value
2023-03-22T00:00:34.014Z,98610.03
2023-03-22T00:03:02.232Z,98591.09
2023-03-22T00:05:30.566Z,98593.63
2023-03-22T00:07:59.151Z,98591.88
2023-03-22T00:10:29.826Z,98582.44
2023-03-22T00:12:57.961Z,98586.69
2023-03-22T00:15:26.499Z,98577.25
2023-03-22T00:17:59.062Z,98587.56
2023-03-22T00:20:30.660Z,98593.56
2023-03-22T00:22:58.744Z,98580.69
2023-03-22T00:25:28.092Z,98573.81
2023-03-22T00:27:56.243Z,98586.78
2023-03-22T00:30:24.264Z,98580.75
2023-03-22T00:32:52.324Z,98578.22
2023-03-22T00:35:21.851Z,98583.38
2023-03-22T00:37:51.690Z,98589.41
2023-03-22T00:40:19.971Z,98589.41
2023-03-22T00:42:48.148Z,98607.41
2023-03-22T00:45:16.597Z,98608.28
2023-03-22T00:47:44.675Z,98613.44
2023-03-22T00:50:12.836Z,98623.81
2023-03-22T00:52:42.273Z,98623.91
2023-03-22T00:55:10.559Z,98638.59
2023-03-22T00:57:38.656Z,98644.63
2023-03-22T01:00:16.242Z,98661.91
2023-03-22T01:02:44.897Z,98646.41
2023-03-22T01:05:15.833Z,98674.00
2023-03-22T01:07:45.730Z,98691.34
2023-03-22T01:10:14.027Z,98691.69
2023-03-22T01:12:42.172Z,98699.69
2023-03-22T01:15:11.608Z,98706.84
2023-03-22T01:17:39.668Z,98722.53
2023-03-22T01:20:09.793Z,98731.38
2023-03-22T01:22:37.624Z,98760.84
2023-03-22T01:25:08.296Z,98751.56
2023-03-22T01:27:36.417Z,98744.00
2023-03-22T01:30:05.182Z,98766.50
2023-03-22T01:32:33.337Z,98774.28
2023-03-22T01:35:01.694Z,98788.03
2023-03-22T01:37:30.297Z,98774.25
2023-03-22T01:39:58.342Z,98761.41
2023-03-22T01:42:28.712Z,98785.63
2023-03-22T01:45:39.378Z,98783.25
2023-03-22T01:48:16.619Z,98778.19
2023-03-22T01:50:50.898Z,98805.72
2023-03-22T01:53:24.169Z,98810.09
2023-03-22T01:55:56.667Z,98813.63
2023-03-22T01:58:26.357Z,98822.28
2023-03-22T02:00:55.600Z,98814.66
2023-03-22T02:03:33.800Z,98824.97
2023-03-22T02:06:01.852Z,98827.53
2023-03-22T02:08:31.767Z,98846.47
2023-03-22T02:11:00.613Z,98857.63
2023-03-22T02:14:05.376Z,98861.94
2023-03-22T02:16:46.247Z,98862.00
2023-03-22T02:19:46.443Z,98880.03
2023-03-22T02:22:38.890Z,98875.78
2023-03-22T02:25:46.867Z,98869.78
2023-03-22T02:28:32.568Z,98880.94
2023-03-22T02:31:28.636Z,98883.53
2023-03-22T02:34:39.517Z,98894.69
2023-03-22T02:37:44.448Z,98891.25
2023-03-22T02:40:19.309Z,98892.97
2023-03-22T02:42:58.985Z,98909.28
2023-03-22T02:45:34.975Z,98910.97
2023-03-22T02:48:10.147Z,98921.25
2023-03-22T02:50:43.352Z,98925.53
2023-03-22T02:53:18.398Z,98931.53
2023-03-22T02:55:55.352Z,98940.06
2023-03-22T02:58:27.698Z,98942.63
2023-03-22T03:00:59.557Z,98953.78
2023-03-22T03:03:30.659Z,98955.47
2023-03-22T03:06:03.949Z,98968.31
2023-03-22T03:08:32.601Z,98959.75
2023-03-22T03:11:02.251Z,98964.03
2023-03-22T03:13:30.459Z,98963.16
2023-03-22T03:16:01.529Z,98958.88
2023-03-22T03:18:45.341Z,98968.25
2023-03-22T03:21:25.422Z,98978.53
2023-03-22T03:24:00.942Z,98981.06
2023-03-22T03:26:39.479Z,98987.91
2023-03-22T03:29:15.723Z,98987.03
2023-03-22T03:31:48.325Z,98983.56
2023-03-22T03:34:25.120Z,98997.25
2023-03-22T03:36:59.884Z,99004.03
2023-03-22T03:39:34.262Z,98998.06
2023-03-22T03:42:07.573Z,98995.47
2023-03-22T03:44:37.340Z,98999.75
2023-03-22T03:47:07.269Z,99019.41
2023-03-22T03:49:38.706Z,99028.78
2023-03-22T03:52:08.424Z,99030.44
2023-03-22T03:54:36.462Z,99024.47
2023-03-22T03:57:06.372Z,99032.97
2023-03-22T03:59:34.379Z,99034.66
2023-03-22T04:02:02.520Z,99032.94
2023-03-22T04:04:31.097Z,99039.78
2023-03-22T04:07:00.891Z,99041.47
2023-03-22T04:09:30.413Z,99055.97
2023-03-22T04:11:59.539Z,99044.84
2023-03-22T04:14:30.027Z,99057.63
2023-03-22T04:16:58.150Z,99055.91
2023-03-22T04:19:26.791Z,99055.91
2023-03-22T04:21:55.465Z,99057.59
2023-03-22T04:24:23.802Z,99059.31
2023-03-22T04:26:52.523Z,99065.25
2023-03-22T04:29:22.148Z,99061.81
2023-03-22T04:31:53.142Z,99071.19
2023-03-22T04:34:21.348Z,99067.75
2023-03-22T04:36:50.755Z,99072.88
2023-03-22T04:39:19.068Z,99082.28
2023-03-22T04:41:47.373Z,99081.47
2023-03-22T04:44:15.607Z,99074.59
2023-03-22T04:46:44.629Z,99086.56
2023-03-22T04:49:14.216Z,99084.81
2023-03-22T04:51:42.420Z,99099.28
2023-03-22T04:54:10.449Z,99089.88
2023-03-22T04:56:38.463Z,99099.28
2023-03-22T04:59:06.550Z,99103.50
2023-03-22T05:01:37.704Z,99100.09
2023-03-22T05:04:05.979Z,99098.38
2023-03-22T05:06:35.921Z,99106.91
2023-03-22T05:09:04.106Z,99112.00
2023-03-22T05:11:32.115Z,99111.13
2023-03-22T05:14:00.153Z,99118.81
2023-03-22T05:16:28.263Z,99117.09
2023-03-22T05:18:56.998Z,99111.97
2023-03-22T05:21:29.156Z,99109.41
2023-03-22T05:23:59.997Z,99110.25
2023-03-22T05:26:28.167Z,99104.28
2023-03-22T05:28:57.074Z,99110.25
2023-03-22T05:31:25.162Z,99114.53
2023-03-22T05:33:53.767Z,99125.63
2023-03-22T05:36:24.165Z,99122.22
2023-03-22T05:38:52.548Z,99127.34
2023-03-22T05:41:21.909Z,99111.97
2023-03-22T05:43:51.998Z,99111.09
2023-03-22T05:46:20.109Z,99125.56
2023-03-22T05:48:48.957Z,99130.63
2023-03-22T05:51:20.071Z,99128.97
2023-03-22T05:53:49.147Z,99119.59
2023-03-22T05:56:17.208Z,99117.03
2023-03-22T05:58:46.693Z,99111.09
2023-03-22T06:01:16.498Z,99118.78
2023-03-22T06:03:44.579Z,99123.84
2023-03-22T06:06:13.899Z,99122.16
2023-03-22T06:08:41.992Z,99117.09
2023-03-22T06:11:10.552Z,99108.56
2023-03-22T06:13:40.159Z,99117.09
2023-03-22T06:16:09.689Z,99125.59
2023-03-22T06:18:37.840Z,99130.69
2023-03-22T06:21:06.413Z,99134.94
2023-03-22T06:23:34.464Z,99138.38
2023-03-22T06:26:02.689Z,99129.84
2023-03-22T06:28:30.657Z,99129.91
2023-03-22T06:30:58.788Z,99137.56
2023-03-22T06:33:28.230Z,99134.13
2023-03-22T06:35:56.323Z,99131.56
2023-03-22T06:38:25.729Z,99133.28
2023-03-22T06:40:53.940Z,99130.72
2023-03-22T06:43:21.957Z,99124.78
2023-03-22T06:45:50.271Z,99118.84
2023-03-22T06:48:19.564Z,99121.41
2023-03-22T06:50:49.031Z,99125.69
2023-03-22T06:53:17.212Z,99120.63
2023-03-22T06:55:46.395Z,99115.53
2023-03-22T06:58:14.769Z,99112.13
2023-03-22T07:00:43.657Z,99122.38
2023-03-22T07:03:11.997Z,99118.97
2023-03-22T07:05:39.983Z,99107.94
2023-03-22T07:08:10.580Z,99120.75
2023-03-22T07:10:40.073Z,99117.38
2023-03-22T07:13:11.296Z,99112.28
2023-03-22T07:15:39.301Z,99108.09
2023-03-22T07:18:08.551Z,99111.53
2023-03-22T07:20:40.941Z,99106.44
2023-03-22T07:23:11.985Z,99106.47
2023-03-22T07:25:40.062Z,99103.09
2023-03-22T07:28:08.122Z,99095.44
2023-03-22T07:30:37.877Z,99091.19
2023-03-22T07:33:06.723Z,99094.63
2023-03-22T07:35:35.275Z,99086.97
2023-03-22T07:38:10.948Z,99099.84
2023-03-22T07:40:41.356Z,99101.56
2023-03-22T07:43:12.154Z,99095.59
2023-03-22T07:45:41.087Z,99090.53
2023-03-22T07:48:11.354Z,99086.25
2023-03-22T07:50:39.674Z,99084.56
2023-03-22T07:53:07.766Z,99094.00
2023-03-22T07:55:35.872Z,99091.44
2023-03-22T07:58:06.219Z,99094.06
2023-03-22T08:00:34.383Z,99088.94
2023-03-22T08:03:03.455Z,99095.81
2023-03-22T08:05:31.614Z,99088.97
2023-03-22T08:08:00.694Z,99086.41
2023-03-22T08:10:28.715Z,99088.13
2023-03-22T08:13:00.837Z,99089.00
2023-03-22T08:15:31.850Z,99085.56
2023-03-22T08:18:00.738Z,99085.59
2023-03-22T08:20:30.078Z,99090.72
2023-03-22T08:22:58.219Z,99093.34
2023-03-22T08:25:26.278Z,99096.75
2023-03-22T08:27:54.283Z,99078.75
2023-03-22T08:30:23.327Z,99077.06
2023-03-22T08:32:53.248Z,99080.50
2023-03-22T08:35:21.403Z,99095.03
2023-03-22T08:37:49.468Z,99085.63
2023-03-22T08:40:20.016Z,99084.78
2023-03-22T08:42:48.105Z,99083.91
2023-03-22T08:45:16.260Z,99088.19
2023-03-22T08:47:44.760Z,99085.63
2023-03-22T08:50:14.815Z,99071.06
2023-03-22T08:52:42.947Z,99071.91
2023-03-22T08:55:11.463Z,99076.16
2023-03-22T08:57:39.513Z,99081.28
2023-03-22T09:00:10.718Z,99081.28
2023-03-22T09:02:38.808Z,99075.31
2023-03-22T09:05:07.554Z,99064.97
2023-03-22T09:07:37.621Z,99071.88
2023-03-22T09:10:06.366Z,99065.84
2023-03-22T09:12:34.548Z,99066.72
2023-03-22T09:15:02.840Z,99050.38
2023-03-22T09:17:31.172Z,99047.72
2023-03-22T09:20:11.428Z,99040.78
2023-03-22T09:22:44.097Z,99042.34
2023-03-22T09:25:13.130Z,99020.69
2023-03-22T09:27:41.736Z,99041.09
2023-03-22T09:30:11.345Z,99032.34
2023-03-22T09:32:42.356Z,99033.06
2023-03-22T09:35:10.908Z,99034.06
2023-03-22T09:37:39.410Z,99037.69
2023-03-22T09:40:10.389Z,99034.34
2023-03-22T09:42:45.219Z,99039.63
2023-03-22T09:45:18.618Z,99037.09
2023-03-22T09:47:54.852Z,99027.66
2023-03-22T09:50:26.465Z,99028.59
2023-03-22T09:52:55.345Z,99038.91
2023-03-22T09:55:37.396Z,99046.63
2023-03-22T09:58:17.885Z,99051.78
2023-03-22T10:00:49.513Z,99048.34
2023-03-22T10:03:25.481Z,99056.06
2023-03-22T10:06:00.449Z,99049.16
2023-03-22T10:08:36.935Z,99060.34
2023-03-22T10:11:16.161Z,99049.25
2023-03-22T10:13:55.258Z,99051.88
2023-03-22T10:16:28.273Z,99058.72
2023-03-22T10:19:02.922Z,99065.59
2023-03-22T10:21:31.271Z,99049.19
2023-03-22T10:24:03.220Z,99048.16
2023-03-22T10:26:38.269Z,99045.38
2023-03-22T10:29:13.907Z,99051.16
2023-03-22T10:31:45.483Z,99049.97
2023-03-22T10:34:20.919Z,99035.19
2023-03-22T10:36:52.682Z,99022.97
2023-03-22T10:39:29.861Z,99035.97
2023-03-22T10:42:02.344Z,99039.66
2023-03-22T10:44:34.857Z,99033.03
2023-03-22T10:47:08.268Z,99036.53
2023-03-22T10:49:43.803Z,99033.78
2023-03-22T10:52:24.389Z,99024.28
2023-03-22T10:54:52.671Z,99032.75
2023-03-22T10:57:23.564Z,99034.28
2023-03-22T10:59:53.018Z,99026.41
2023-03-22T11:02:23.704Z,99017.41
2023-03-22T11:04:53.872Z,99013.13
2023-03-22T11:07:32.155Z,99028.00
2023-03-22T11:10:34.652Z,99020.38
2023-03-22T11:13:23.188Z,99021.41
2023-03-22T11:15:55.713Z,99023.88
2023-03-22T11:18:26.196Z,99016.69
2023-03-22T11:20:59.181Z,99011.78
2023-03-22T11:23:30.158Z,98994.88
2023-03-22T11:26:02.667Z,98998.28
2023-03-22T11:28:36.548Z,98985.50
2023-03-22T11:31:08.959Z,98984.25
2023-03-22T11:33:38.137Z,98980.28
2023-03-22T11:36:16.932Z,98971.53
2023-03-22T11:38:47.210Z,98979.59
2023-03-22T11:41:23.687Z,98958.28
2023-03-22T11:43:56.577Z,98969.09
2023-03-22T11:46:25.927Z,98963.44
2023-03-22T11:49:02.533Z,98961.88
2023-03-22T11:51:35.232Z,98951.41
2023-03-22T11:54:08.292Z,98944.25
2023-03-22T11:56:43.790Z,98947.59
2023-03-22T11:59:25.487Z,98951.00
2023-03-22T12:01:59.386Z,98955.66
2023-03-22T12:04:35.594Z,98953.53
2023-03-22T12:07:10.931Z,98944.09
2023-03-22T12:09:42.709Z,98942.72
2023-03-22T12:12:16.079Z,98937.53
2023-03-22T12:14:52.598Z,98938.31
2023-03-22T12:17:30.298Z,98954.41
2023-03-22T12:20:07.430Z,98948.81
2023-03-22T12:22:40.063Z,98950.69
2023-03-22T12:25:17.456Z,98940.38
2023-03-22T12:27:48.449Z,98942.97
2023-03-22T12:30:22.072Z,98950.06
2023-03-22T12:32:53.641Z,98942.25
2023-03-22T12:35:26.483Z,98937.31
2023-03-22T12:37:57.872Z,98942.66
2023-03-22T12:40:28.505Z,98939.78
2023-03-22T12:43:03.792Z,98934.25
2023-03-22T12:45:37.538Z,98928.00
2023-03-22T12:48:13.243Z,98914.16
2023-03-22T12:50:46.400Z,98916.00
2023-03-22T12:53:17.594Z,98909.16
2023-03-22T12:55:48.619Z,98915.19
2023-03-22T12:58:22.024Z,98922.06
2023-03-22T13:00:58.151Z,98904.94
2023-03-22T13:03:29.070Z,98910.69
2023-03-22T13:06:05.739Z,98893.72
2023-03-22T13:09:14.134Z,98897.81
2023-03-22T13:11:42.389Z,98894.41
2023-03-22T13:14:15.246Z,98882.88
2023-03-22T13:16:54.557Z,98885.47
2023-03-22T13:19:33.573Z,98878.88
2023-03-22T13:22:24.350Z,98881.38
2023-03-22T13:25:29.677Z,98870.53
2023-03-22T13:27:59.510Z,98871.09
2023-03-22T13:30:32.885Z,98867.06
2023-03-22T13:33:14.043Z,98861.56
2023-03-22T13:35:46.057Z,98852.97
2023-03-22T13:38:22.420Z,98857.06
2023-03-22T13:41:01.870Z,98847.53
2023-03-22T13:43:34.137Z,98847.88
2023-03-22T13:46:12.591Z,98851.56
2023-03-22T13:49:00.784Z,98845.31
2023-03-22T13:51:32.147Z,98833.00
2023-03-22T13:54:08.123Z,98840.78
2023-03-22T13:56:52.910Z,98839.88
2023-03-22T13:59:25.507Z,98826.16
2023-03-22T14:01:57.571Z,98818.03
2023-03-22T14:04:35.114Z,98803.50
2023-03-22T14:07:09.414Z,98808.06
2023-03-22T14:09:44.572Z,98798.25
2023-03-22T14:12:20.771Z,98795.72
2023-03-22T14:14:53.187Z,98784.72
2023-03-22T14:17:33.220Z,98775.22
2023-03-22T14:20:06.179Z,98773.25
